Time;durP1;ratioP1;P1;durP2;ratioP2;P2;SDS_P1;SDS_P2;PMS_P1;PMS_P2;Temp;Humidity;BMP_temperature;BMP_pressure;BME280_temperature;BME280_humidity;BME280_pressure;Samples;Min_cycle;Max_cycle;Signal;HPM_P1;HPM_P2
2021/10/26 00:02:11;;;;;;;16.33;10.40;;;;;;;11.18;82.39;101525.00;10255078;28;20078;-69
2021/10/26 00:07:07;;;;;;;18.10;11.07;;;;;;;11.16;82.82;101538.97;10255366;28;20682;-69
2021/10/26 00:12:05;;;;;;;21.90;13.35;;;;;;;10.92;87.49;101550.88;10256495;28;20065;-69
2021/10/26 00:17:01;;;;;;;20.45;14.57;;;;;;;10.74;89.82;101547.09;10253168;28;20068;-69
2021/10/26 00:21:58;;;;;;;22.17;15.65;;;;;;;10.62;92.09;101551.38;10246930;28;20088;-68
2021/10/26 00:26:55;;;;;;;21.45;16.23;;;;;;;10.53;93.21;101543.03;10250196;28;20046;-68
2021/10/26 00:31:51;;;;;;;22.45;16.75;;;;;;;10.54;94.14;101547.41;10253076;28;20136;-67
2021/10/26 00:36:48;;;;;;;23.83;17.83;;;;;;;10.49;95.13;101536.56;10240705;28;20084;-68
2021/10/26 00:41:45;;;;;;;30.67;17.83;;;;;;;10.49;95.18;101537.38;10246899;28;20154;-69
2021/10/26 00:46:42;;;;;;;31.15;20.30;;;;;;;10.43;97.47;101537.75;10245671;28;20061;-69
2021/10/26 00:51:40;;;;;;;31.75;19.25;;;;;;;10.38;98.33;101535.91;10250453;28;20049;-68
2021/10/26 00:56:36;;;;;;;26.10;20.65;;;;;;;10.37;98.52;101533.44;10243161;28;20134;-70
2021/10/26 01:01:33;;;;;;;32.08;21.80;;;;;;;10.39;99.12;101536.69;10249360;28;20630;-70
2021/10/26 01:06:30;;;;;;;29.65;20.05;;;;;;;10.43;99.30;101543.22;10248456;28;20088;-70
2021/10/26 01:11:26;;;;;;;32.45;20.50;;;;;;;10.48;99.93;101534.91;10253915;28;20508;-69
2021/10/26 01:16:24;;;;;;;29.80;20.85;;;;;;;10.51;99.92;101534.31;10257903;28;20044;-70
2021/10/26 01:21:21;;;;;;;31.05;20.40;;;;;;;10.53;99.38;101532.09;10254116;28;20060;-69
2021/10/26 01:26:18;;;;;;;28.05;20.15;;;;;;;10.57;98.70;101526.88;10254910;28;20037;-70
2021/10/26 01:31:15;;;;;;;31.02;20.08;;;;;;;10.58;98.73;101528.47;10257900;28;20042;-69
2021/10/26 01:36:11;;;;;;;24.27;19.00;;;;;;;10.54;97.85;101528.28;10261885;28;20040;-69
2021/10/26 01:41:08;;;;;;;31.00;18.65;;;;;;;10.50;97.88;101524.50;10262971;28;20068;-68
2021/10/26 01:46:04;;;;;;;28.00;18.10;;;;;;;10.49;98.26;101525.63;10252899;28;20034;-70
2021/10/26 01:51:03;;;;;;;27.08;18.70;;;;;;;10.49;97.64;101531.09;10257372;28;20059;-68
2021/10/26 01:56:01;;;;;;;27.95;19.88;;;;;;;10.50;97.10;101527.22;10251928;28;20406;-68
2021/10/26 02:00:57;;;;;;;28.42;19.50;;;;;;;10.49;97.13;101531.09;10267344;28;20072;-69
2021/10/26 02:05:54;;;;;;;26.33;18.30;;;;;;;10.51;97.68;101528.84;10257687;28;20052;-68
2021/10/26 02:10:50;;;;;;;26.02;19.45;;;;;;;10.50;96.98;101527.22;10257661;28;20045;-69
2021/10/26 02:15:47;;;;;;;27.10;19.05;;;;;;;10.47;97.09;101522.38;10254184;28;20132;-68
2021/10/26 02:20:43;;;;;;;30.48;20.75;;;;;;;10.52;97.10;101519.56;10248311;28;20685;-69
2021/10/26 02:25:39;;;;;;;30.15;19.50;;;;;;;10.53;97.25;101521.16;10243193;28;20088;-69
2021/10/26 02:30:36;;;;;;;32.13;20.90;;;;;;;10.55;97.00;101521.69;10247915;28;20041;-69
2021/10/26 02:35:33;;;;;;;32.70;22.73;;;;;;;10.53;96.96;101521.97;10250597;28;20116;-69
2021/10/26 02:40:29;;;;;;;32.60;23.38;;;;;;;10.53;97.04;101523.91;10258911;28;20053;-68
2021/10/26 02:45:29;;;;;;;32.00;23.20;;;;;;;10.52;97.17;101516.81;10249778;28;20610;-69
2021/10/26 02:50:26;;;;;;;40.30;26.60;;;;;;;10.49;97.58;101511.97;10256841;28;20132;-70
2021/10/26 02:55:22;;;;;;;38.08;25.60;;;;;;;10.49;97.72;101514.69;10242770;28;20083;-68
2021/10/26 03:00:19;;;;;;;37.25;23.90;;;;;;;10.52;97.30;101519.56;10253261;28;20088;-70
2021/10/26 03:05:15;;;;;;;47.42;27.98;;;;;;;10.51;97.70;101520.66;10248689;28;20045;-68
2021/10/26 03:10:13;;;;;;;39.05;25.80;;;;;;;10.54;97.40;101522.81;10252537;28;20068;-69
2021/10/26 03:15:11;;;;;;;39.35;24.98;;;;;;;10.55;97.08;101513.47;10246257;28;20137;-70
2021/10/26 03:20:09;;;;;;;38.80;25.33;;;;;;;10.52;97.33;101503.16;10251090;28;20496;-70
2021/10/26 03:25:06;;;;;;;38.15;24.90;;;;;;;10.47;97.35;101511.44;10245573;28;20610;-70
2021/10/26 03:30:07;;;;;;;38.05;25.58;;;;;;;10.41;97.90;101504.41;10256216;28;20037;-69
2021/10/26 03:35:04;;;;;;;38.80;25.98;;;;;;;10.32;97.93;101499.59;10251620;28;20048;-71
2021/10/26 03:40:01;;;;;;;37.60;25.83;;;;;;;10.30;98.51;101511.94;10255365;28;20048;-71
2021/10/26 03:44:58;;;;;;;38.00;24.98;;;;;;;10.26;98.26;101494.50;10256263;28;20059;-73
2021/10/26 03:49:54;;;;;;;34.63;24.23;;;;;;;10.24;98.17;101513.94;10246015;28;20076;-73
2021/10/26 03:54:55;;;;;;;38.95;26.48;;;;;;;10.22;97.85;101516.13;10244091;28;20045;-71
2021/10/26 03:59:52;;;;;;;36.55;25.77;;;;;;;10.22;98.39;101505.22;10236689;28;20048;-71
2021/10/26 04:04:48;;;;;;;38.67;25.58;;;;;;;10.21;98.28;101509.06;10238573;28;20059;-71
2021/10/26 04:10:00;;;;;;;34.88;25.40;;;;;;;10.22;98.40;101515.34;10246216;28;20525;-71
2021/10/26 04:14:58;;;;;;;37.17;25.65;;;;;;;10.14;98.72;101522.25;10245414;28;20087;-70
2021/10/26 04:19:57;;;;;;;36.58;25.40;;;;;;;10.13;98.75;101528.84;10252226;28;20045;-71
2021/10/26 04:24:54;;;;;;;37.03;25.92;;;;;;;10.23;99.84;101528.69;10228170;28;20045;-72
2021/10/26 04:29:50;;;;;;;39.95;24.83;;;;;;;10.31;99.53;101525.31;10234572;28;20088;-72
2021/10/26 04:34:48;;;;;;;33.78;22.38;;;;;;;10.38;98.94;101529.63;10249968;28;20076;-72
2021/10/26 04:39:46;;;;;;;35.17;21.92;;;;;;;10.41;99.45;101539.94;10243515;28;20080;-72
2021/10/26 04:44:42;;;;;;;37.95;25.95;;;;;;;10.44;98.72;101544.81;10243310;28;20119;-72
2021/10/26 04:49:38;;;;;;;33.63;23.27;;;;;;;10.48;98.77;101548.59;10223433;28;20071;-72
2021/10/26 04:54:35;;;;;;;39.65;24.88;;;;;;;10.51;98.94;101550.72;10256117;28;20049;-70
2021/10/26 04:59:31;;;;;;;42.90;26.38;;;;;;;10.52;98.71;101546.91;10251896;28;20176;-71
2021/10/26 05:04:28;;;;;;;39.22;27.38;;;;;;;10.50;98.12;101551.84;10239320;28;20065;-71
2021/10/26 05:09:25;;;;;;;33.75;24.50;;;;;;;10.52;98.78;101563.31;10252126;28;20046;-71
2021/10/26 05:14:21;;;;;;;43.15;27.70;;;;;;;10.49;98.41;101572.09;10251617;28;20077;-71
2021/10/26 05:19:20;;;;;;;38.80;28.27;;;;;;;10.49;98.75;101572.09;10259947;28;20064;-72
2021/10/26 05:24:17;;;;;;;40.78;26.40;;;;;;;10.45;98.15;101562.88;10247665;28;20049;-72
2021/10/26 05:29:14;;;;;;;41.90;28.15;;;;;;;10.40;98.65;101568.41;10249041;28;20494;-72
2021/10/26 05:34:10;;;;;;;39.83;26.67;;;;;;;10.33;99.97;101563.31;10251644;28;20049;-71
2021/10/26 05:39:09;;;;;;;41.30;25.23;;;;;;;10.31;100.00;101573.72;10250822;28;20475;-71
2021/10/26 05:44:05;;;;;;;39.58;26.83;;;;;;;10.30;99.56;101578.38;10259891;28;20518;-72
2021/10/26 05:49:03;;;;;;;41.58;28.25;;;;;;;10.26;100.00;101577.31;10249276;28;20504;-72
2021/10/26 05:54:00;;;;;;;41.63;29.33;;;;;;;10.26;100.00;101577.31;10257534;28;20098;-72
2021/10/26 05:58:59;;;;;;;41.55;29.30;;;;;;;10.30;100.00;101589.31;10260537;28;20053;-71
2021/10/26 06:03:56;;;;;;;44.85;29.33;;;;;;;10.34;100.00;101584.06;10258404;28;20123;-71
2021/10/26 06:08:52;;;;;;;47.42;30.63;;;;;;;10.35;100.00;101584.88;10256412;28;20041;-72
2021/10/26 06:14:08;;;;;;;43.70;29.30;;;;;;;10.34;99.81;101595.00;10249534;28;20125;-71
2021/10/26 06:19:04;;;;;;;49.40;30.95;;;;;;;10.37;100.00;101599.06;10252430;28;20065;-71
2021/10/26 06:24:01;;;;;;;46.67;31.48;;;;;;;10.40;100.00;101612.16;10263560;28;20072;-71
2021/10/26 06:28:58;;;;;;;43.25;30.35;;;;;;;10.41;100.00;101619.22;10239347;28;20033;-71
2021/10/26 06:33:55;;;;;;;46.22;29.58;;;;;;;10.46;100.00;101630.09;10261551;28;20422;-72
2021/10/26 06:38:52;;;;;;;43.22;29.73;;;;;;;10.46;100.00;101630.91;10258425;28;20627;-72
2021/10/26 06:43:48;;;;;;;43.83;31.52;;;;;;;10.52;100.00;101639.88;10255174;28;20084;-71
2021/10/26 06:48:46;;;;;;;45.42;29.00;;;;;;;10.55;99.59;101639.25;10266122;28;20038;-72
2021/10/26 06:53:42;;;;;;;44.53;30.05;;;;;;;10.60;99.47;101647.38;10240339;28;20042;-71
2021/10/26 06:58:39;;;;;;;46.55;31.98;;;;;;;10.63;99.47;101643.25;10228686;28;20076;-72
2021/10/26 07:03:36;;;;;;;43.92;29.38;;;;;;;10.63;99.29;101646.81;10227994;28;20679;-71
2021/10/26 07:08:34;;;;;;;46.63;31.45;;;;;;;10.63;99.01;101659.66;10236673;28;20039;-71
2021/10/26 07:13:34;;;;;;;44.40;31.90;;;;;;;10.67;99.25;101669.72;10250151;28;20041;-71
2021/10/26 07:18:32;;;;;;;42.55;30.08;;;;;;;10.62;99.55;101658.84;10255829;28;20040;-72
2021/10/26 07:23:28;;;;;;;44.42;29.27;;;;;;;10.68;99.52;101671.34;10255626;28;20454;-71
2021/10/26 07:28:25;;;;;;;43.40;31.08;;;;;;;10.68;99.22;101670.56;10262368;28;20095;-71
2021/10/26 07:33:25;;;;;;;47.63;32.33;;;;;;;10.69;98.58;101683.91;10248308;28;20098;-71
2021/10/26 07:38:30;;;;;;;45.05;29.60;;;;;;;10.68;99.44;101687.75;10254075;28;20115;-72
2021/10/26 07:43:29;;;;;;;52.55;31.40;;;;;;;10.74;98.96;101686.59;10256119;28;20065;-72
2021/10/26 07:48:27;;;;;;;40.67;28.27;;;;;;;10.78;98.73;101686.00;10258379;28;20045;-72
2021/10/26 07:53:27;;;;;;;38.75;27.65;;;;;;;10.78;98.59;101702.41;10250646;28;20076;-72
2021/10/26 07:58:25;;;;;;;39.83;27.20;;;;;;;10.73;97.72;101704.09;10250461;28;20565;-71
2021/10/26 08:03:22;;;;;;;37.63;26.42;;;;;;;10.81;97.59;101707.28;10262086;28;20119;-72
2021/10/26 08:08:18;;;;;;;36.67;24.92;;;;;;;10.87;97.51;101700.63;10257484;28;20673;-71
2021/10/26 08:13:16;;;;;;;37.45;25.05;;;;;;;10.90;97.44;101702.78;10243286;28;20064;-72
2021/10/26 08:18:12;;;;;;;43.53;27.40;;;;;;;10.94;96.99;101695.59;10256271;28;20095;-71
2021/10/26 08:23:09;;;;;;;37.30;24.63;;;;;;;10.95;97.12;101702.69;10259805;28;20099;-71
2021/10/26 08:28:15;;;;;;;38.63;24.37;;;;;;;10.96;97.19;101715.28;10252545;28;20575;-71
2021/10/26 08:38:10;;;;;;;31.15;22.85;;;;;;;11.01;96.34;101696.03;10241807;28;20054;-71
2021/10/26 08:43:08;;;;;;;33.25;23.80;;;;;;;11.07;96.03;101710.44;10255502;28;20046;-71
2021/10/26 08:48:06;;;;;;;31.05;22.45;;;;;;;11.16;95.38;101704.03;10260328;28;20086;-71
2021/10/26 08:53:04;;;;;;;34.47;23.35;;;;;;;11.24;95.16;101709.94;10254118;28;20041;-71
2021/10/26 08:58:04;;;;;;;40.63;21.90;;;;;;;11.23;95.00;101720.09;10263499;28;20037;-72
2021/10/26 09:03:15;;;;;;;32.33;20.92;;;;;;;11.30;94.94;101716.94;10259277;28;20099;-71
2021/10/26 09:08:12;;;;;;;36.92;22.88;;;;;;;11.30;94.32;101714.19;10260601;28;20049;-71
2021/10/26 09:18:27;;;;;;;54.97;22.55;;;;;;;11.39;93.29;101715.16;10256746;28;20045;-72
2021/10/26 09:23:27;;;;;;;31.08;22.25;;;;;;;11.38;92.19;101705.31;10258255;28;20459;-71
2021/10/26 09:28:29;;;;;;;36.42;22.25;;;;;;;11.49;92.76;101725.97;10268594;28;20486;-72
2021/10/26 09:33:37;;;;;;;28.52;20.20;;;;;;;11.51;91.47;101715.53;10246846;28;20046;-72
2021/10/26 09:38:33;;;;;;;27.00;16.55;;;;;;;11.52;89.88;101711.66;10263888;28;20144;-72
2021/10/26 09:43:30;;;;;;;25.13;15.43;;;;;;;11.57;89.00;101719.78;10262705;28;20068;-71
2021/10/26 09:48:34;;;;;;;28.83;15.10;;;;;;;11.65;88.98;101731.16;10261722;28;20098;-72
2021/10/26 09:53:32;;;;;;;;;;;;;;;11.76;89.25;101727.13;10262356;28;20072;-71
2021/10/26 09:58:29;;;;;;;28.38;16.23;;;;;;;11.66;87.93;101727.31;10268123;28;20401;-71
2021/10/26 10:03:26;;;;;;;24.73;15.45;;;;;;;11.69;88.00;101737.66;10260494;28;20037;-71
2021/10/26 10:08:29;;;;;;;27.30;14.80;;;;;;;11.73;88.48;101727.75;10260532;28;20041;-71
2021/10/26 10:13:27;;;;;;;24.65;14.00;;;;;;;11.69;88.12;101737.66;10255246;28;20044;-71
2021/10/26 10:18:24;;;;;;;21.20;15.10;;;;;;;11.79;89.02;101726.56;10259392;28;20494;-71
2021/10/26 10:23:22;;;;;;;25.92;15.90;;;;;;;11.83;87.55;101733.03;10258544;28;20144;-71
2021/10/26 10:28:20;;;;;;;23.15;14.95;;;;;;;12.07;87.26;101726.59;10246898;28;20064;-71
2021/10/26 10:33:20;;;;;;;25.08;16.42;;;;;;;12.09;85.47;101735.34;10263782;28;20120;-71
2021/10/26 10:38:18;;;;;;;20.67;14.35;;;;;;;12.13;85.55;101741.84;10252352;28;20091;-71
2021/10/26 10:43:33;;;;;;;25.13;15.40;;;;;;;12.11;82.61;101735.84;10258749;28;20052;-71
2021/10/26 10:48:32;;;;;;;16.45;10.95;;;;;;;12.28;81.73;101727.84;10235291;28;20072;-71
2021/10/26 10:53:33;;;;;;;17.58;10.13;;;;;;;12.50;80.79;101729.03;10215715;28;20569;-71
2021/10/26 10:58:38;;;;;;;15.90;9.60;;;;;;;12.63;80.05;101722.75;10216416;28;20041;-71
2021/10/26 11:03:35;;;;;;;16.75;9.68;;;;;;;12.50;78.27;101734.53;10244405;28;20072;-71
2021/10/26 11:08:47;;;;;;;19.75;10.52;;;;;;;12.52;77.89;101724.06;10257009;28;20176;-72
2021/10/26 11:13:44;;;;;;;18.50;9.57;;;;;;;12.56;78.38;101722.34;10244160;28;20037;-71
2021/10/26 11:18:51;;;;;;;16.67;9.95;;;;;;;12.66;77.30;101733.09;10250131;28;20045;-71
2021/10/26 11:23:49;;;;;;;18.05;9.95;;;;;;;12.75;76.25;101725.75;10254547;28;20040;-71
2021/10/26 11:28:51;;;;;;;15.75;10.35;;;;;;;12.98;76.25;101718.38;10250655;28;20033;-71
2021/10/26 11:34:06;;;;;;;18.70;9.65;;;;;;;13.14;75.75;101705.13;10261611;28;20708;-70
2021/10/26 11:39:09;;;;;;;20.23;13.32;;;;;;;13.18;73.99;101722.59;10241394;28;20076;-71
2021/10/26 11:44:13;;;;;;;23.70;14.63;;;;;;;13.15;74.14;101723.22;10254066;28;20044;-70
2021/10/26 11:49:19;;;;;;;22.05;15.93;;;;;;;13.04;74.76;101727.31;10247857;28;20135;-71
2021/10/26 11:54:19;;;;;;;20.67;14.75;;;;;;;13.00;74.95;101731.81;10264787;28;20044;-71
2021/10/26 11:59:22;;;;;;;20.80;14.50;;;;;;;13.00;75.11;101720.84;10247192;28;20048;-71
2021/10/26 12:04:29;;;;;;;17.83;10.35;;;;;;;12.95;73.92;101713.53;10252782;28;20114;-70
2021/10/26 12:09:33;;;;;;;16.67;11.35;;;;;;;13.00;73.71;101704.38;10252319;28;20161;-71
2021/10/26 12:14:32;;;;;;;18.83;12.15;;;;;;;12.99;73.58;101714.50;10247440;28;20061;-71
2021/10/26 12:19:29;;;;;;;17.67;13.75;;;;;;;13.10;73.62;101709.59;10250363;28;20080;-71
2021/10/26 12:24:31;;;;;;;19.45;13.02;;;;;;;13.07;73.74;101715.72;10244860;28;20054;-71
2021/10/26 12:29:36;;;;;;;21.67;13.40;;;;;;;12.99;72.65;101721.94;10247396;28;20060;-71
2021/10/26 12:34:35;;;;;;;19.38;13.18;;;;;;;12.98;73.92;101717.59;10256680;28;20072;-71
2021/10/26 12:39:31;;;;;;;18.85;13.18;;;;;;;12.95;73.74;101716.28;10235329;28;20076;-71
2021/10/26 12:44:29;;;;;;;21.55;13.10;;;;;;;12.93;74.36;101718.50;10250252;28;20174;-71
2021/10/26 12:49:34;;;;;;;19.95;11.57;;;;;;;12.84;73.70;101712.94;10259600;28;20594;-71
2021/10/26 12:54:35;;;;;;;17.50;12.07;;;;;;;12.88;74.26;101712.31;10240169;28;20108;-70
2021/10/26 12:59:32;;;;;;;17.05;11.13;;;;;;;12.93;74.25;101703.97;10236052;28;20491;-71
2021/10/26 13:04:29;;;;;;;20.08;12.30;;;;;;;12.93;74.53;101710.28;10255434;28;20077;-71
2021/10/26 13:09:38;;;;;;;17.90;11.45;;;;;;;12.93;74.84;101703.97;10248836;28;20042;-71
2021/10/26 13:14:54;;;;;;;21.63;12.18;;;;;;;12.89;74.95;101692.00;10252803;28;20414;-71
2021/10/26 13:19:50;;;;;;;17.40;11.45;;;;;;;12.88;75.81;101701.31;10253297;28;20435;-71
2021/10/26 13:24:47;;;;;;;20.15;12.50;;;;;;;12.83;75.95;101705.00;10258680;28;20075;-71
2021/10/26 13:29:45;;;;;;;19.85;14.07;;;;;;;12.73;76.73;101699.75;10263132;28;20041;-71
2021/10/26 13:34:41;;;;;;;22.83;14.93;;;;;;;12.77;77.23;101707.06;10251203;28;20045;-71
2021/10/26 13:39:38;;;;;;;23.90;14.25;;;;;;;12.79;77.13;101699.34;10262436;28;20036;-71
2021/10/26 13:44:35;;;;;;;22.92;15.48;;;;;;;12.80;77.73;101689.97;10251697;28;20068;-71
2021/10/26 13:49:31;;;;;;;20.63;14.18;;;;;;;12.79;77.37;101698.53;10220016;28;21019;-71
2021/10/26 13:54:28;;;;;;;23.92;16.10;;;;;;;12.78;77.41;101697.69;10248522;28;20076;-71
2021/10/26 13:59:25;;;;;;;20.40;13.45;;;;;;;12.79;77.49;101693.03;10259865;28;20073;-71
2021/10/26 14:04:34;;;;;;;21.67;12.68;;;;;;;12.70;77.29;101701.19;10258540;28;20123;-71
2021/10/26 14:09:31;;;;;;;19.88;11.55;;;;;;;12.69;77.44;101699.53;10250720;28;20056;-71
2021/10/26 14:14:28;;;;;;;17.08;10.70;;;;;;;12.72;77.86;101698.94;10259831;28;20057;-70
2021/10/26 14:19:24;;;;;;;18.45;11.95;;;;;;;12.71;77.48;101702.78;10250549;28;20041;-71
2021/10/26 14:24:22;;;;;;;22.30;11.10;;;;;;;12.70;77.54;101705.88;10254445;28;20472;-71
2021/10/26 14:29:19;;;;;;;20.23;11.07;;;;;;;12.68;77.49;101706.16;10247736;28;20072;-71
2021/10/26 14:34:20;;;;;;;17.10;10.70;;;;;;;12.72;77.92;101709.13;10262809;28;20060;-71
2021/10/26 14:55:23;;;;;;;16.33;8.77;;;;;;;12.56;77.18;101716.84;10219352;28;20429;-71
2021/10/26 15:00:20;;;;;;;18.00;9.35;;;;;;;12.58;77.75;101714.63;10248281;28;20396;-71
2021/10/26 15:05:17;;;;;;;16.33;8.63;;;;;;;12.57;77.46;101718.47;10257767;28;20553;-71
2021/10/26 15:10:28;;;;;;;17.27;8.65;;;;;;;12.57;77.73;101719.28;10248812;28;20072;-70
2021/10/26 15:15:24;;;;;;;21.13;9.10;;;;;;;12.51;77.69;101719.69;10242430;28;20045;-71
2021/10/26 15:20:22;;;;;;;17.55;9.85;;;;;;;12.51;78.27;101731.50;10247899;28;20696;-71
2021/10/26 15:35:54;;;;;;;17.35;8.80;;;;;;;12.42;79.23;101720.41;10246852;28;20045;-71
2021/10/26 15:40:50;;;;;;;16.77;8.93;;;;;;;12.43;79.40;101719.28;10248594;28;20620;-70
2021/10/26 15:45:47;;;;;;;13.48;8.55;;;;;;;12.40;79.55;101719.91;10253546;28;20675;-70
2021/10/26 15:50:44;;;;;;;19.92;9.77;;;;;;;12.39;79.16;101728.44;10250717;28;20539;-70
2021/10/26 15:55:43;;;;;;;19.40;10.00;;;;;;;12.39;79.69;101723.78;10244301;28;20100;-70
2021/10/26 16:00:40;;;;;;;19.05;10.25;;;;;;;12.33;79.42;101730.47;10249986;28;20533;-69
2021/10/26 16:05:37;;;;;;;19.13;9.85;;;;;;;12.35;79.49;101752.13;10257490;28;20495;-70
2021/10/26 16:10:41;;;;;;;17.25;8.95;;;;;;;12.36;79.96;101757.28;10253979;28;20045;-69
2021/10/26 16:15:45;;;;;;;;;;;;;;;12.33;80.04;101755.16;10254034;28;20423;-70
2021/10/26 16:20:42;;;;;;;;;;;;;;;12.31;79.76;101757.41;10246738;28;19929;-70
2021/10/26 16:25:39;;;;;;;15.25;9.07;;;;;;;12.28;79.79;101765.44;10250801;28;19979;-70
2021/10/26 16:30:37;;;;;;;17.33;9.50;;;;;;;12.28;80.13;101770.91;10246191;28;20036;-69
2021/10/26 16:35:34;;;;;;;18.20;7.95;;;;;;;12.29;80.33;101778.00;10248778;28;20079;-70
2021/10/26 16:40:33;;;;;;;20.92;9.00;;;;;;;12.29;79.39;101772.53;10254116;28;20120;-70
2021/10/26 16:45:45;;;;;;;17.50;8.55;;;;;;;12.27;79.55;101781.03;10261622;28;20065;-73
2021/10/26 16:50:41;;;;;;;19.42;8.40;;;;;;;12.27;79.56;101775.56;10268545;28;20045;-71
2021/10/26 16:55:38;;;;;;;16.52;7.68;;;;;;;12.26;79.37;101773.94;10272857;28;20506;-71
2021/10/26 17:00:41;;;;;;;19.33;8.90;;;;;;;12.24;79.43;101765.22;10261677;28;20049;-71
2021/10/26 17:05:38;;;;;;;13.20;7.67;;;;;;;12.26;79.49;101767.66;10259131;28;20470;-72
2021/10/26 17:10:40;;;;;;;15.27;7.82;;;;;;;12.28;79.58;101773.66;10251548;28;20490;-70
2021/10/26 17:15:42;;;;;;;16.13;7.97;;;;;;;12.27;79.67;101775.56;10257424;28;20047;-70
2021/10/26 17:20:41;;;;;;;13.77;7.82;;;;;;;12.28;79.44;101776.41;10261038;28;20167;-72
2021/10/26 17:25:37;;;;;;;15.40;7.40;;;;;;;12.23;79.84;101788.28;10248525;28;20100;-70
2021/10/26 17:30:35;;;;;;;16.02;7.72;;;;;;;12.21;80.13;101787.75;10262303;28;20050;-70
2021/10/26 17:35:32;;;;;;;14.02;7.55;;;;;;;12.20;80.47;101802.56;10251195;28;20106;-70
2021/10/26 17:40:49;;;;;;;15.27;6.65;;;;;;;12.13;81.88;101799.41;10255460;28;20057;-70
2021/10/26 17:45:46;;;;;;;14.80;7.22;;;;;;;11.94;84.53;101789.31;10255971;28;20410;-72
2021/10/26 17:50:43;;;;;;;14.82;8.02;;;;;;;11.80;86.69;101804.88;10247628;28;20075;-72
2021/10/26 17:55:39;;;;;;;14.77;7.72;;;;;;;11.65;88.43;101791.41;10255477;28;20132;-70
2021/10/26 18:00:35;;;;;;;17.17;8.10;;;;;;;11.55;89.63;101798.69;10254381;28;20041;-69
2021/10/26 18:05:32;;;;;;;13.40;6.53;;;;;;;11.59;89.78;101798.91;10251213;28;20504;-71
2021/10/26 18:10:29;;;;;;;15.52;8.55;;;;;;;11.58;90.04;101809.06;10247900;28;20077;-73
2021/10/26 18:15:27;;;;;;;16.80;8.77;;;;;;;11.57;90.74;101812.09;10247246;28;20049;-71
2021/10/26 18:20:23;;;;;;;17.52;9.00;;;;;;;11.58;91.40;101809.06;10256846;28;20081;-69
2021/10/26 18:25:20;;;;;;;21.58;9.70;;;;;;;11.55;91.73;101795.94;10249785;28;20072;-69
2021/10/26 18:30:19;;;;;;;18.60;10.43;;;;;;;11.59;92.03;101799.72;10239451;28;20049;-68
2021/10/26 18:35:16;;;;;;;17.73;10.23;;;;;;;11.58;92.61;101787.16;10243122;28;20053;-69
2021/10/26 18:40:17;;;;;;;19.17;11.15;;;;;;;11.47;94.81;101791.16;10244371;28;20068;-68
2021/10/26 18:45:27;;;;;;;19.02;11.75;;;;;;;11.37;97.34;101796.78;10247887;28;20130;-70
2021/10/26 18:50:28;;;;;;;20.38;12.90;;;;;;;11.30;98.71;101790.88;10258442;28;20193;-71
2021/10/26 18:55:25;;;;;;;19.05;12.45;;;;;;;11.33;98.80;101795.78;10243434;28;20132;-69
2021/10/26 19:00:22;;;;;;;22.60;14.00;;;;;;;11.31;99.14;101803.47;10245663;28;20045;-69
2021/10/26 19:05:21;;;;;;;24.50;14.77;;;;;;;11.33;99.82;101801.25;10236525;28;20052;-70
2021/10/26 19:10:18;;;;;;;25.85;14.85;;;;;;;11.31;99.22;101795.25;10234061;28;20045;-70
2021/10/26 19:15:15;;;;;;;22.40;15.07;;;;;;;11.33;99.40;101795.78;10240514;28;20063;-73
2021/10/26 19:20:12;;;;;;;23.38;15.13;;;;;;;11.31;99.40;101787.03;10242185;28;20115;-70
2021/10/26 19:25:09;;;;;;;21.95;14.00;;;;;;;11.32;98.76;101794.13;10250609;28;20045;-72
2021/10/26 19:30:11;;;;;;;22.27;14.52;;;;;;;11.35;99.15;101788.06;10244896;28;20045;-72
2021/10/26 19:35:08;;;;;;;24.15;14.80;;;;;;;11.35;98.87;101782.59;10243613;28;20084;-70
2021/10/26 19:40:06;;;;;;;24.48;13.68;;;;;;;11.32;99.26;101783.16;10236318;28;20041;-70
2021/10/26 19:45:04;;;;;;;27.77;16.17;;;;;;;11.34;99.01;101780.94;10246853;28;20499;-71
2021/10/26 19:50:02;;;;;;;27.38;15.48;;;;;;;11.27;99.27;101777.78;10244953;28;20045;-72
2021/10/26 19:54:59;;;;;;;29.98;16.95;;;;;;;11.29;99.89;101794.72;10227595;28;20104;-71
2021/10/26 19:59:55;;;;;;;24.45;15.93;;;;;;;11.29;100.00;101795.53;10238627;28;20041;-71
2021/10/26 20:04:52;;;;;;;27.48;16.20;;;;;;;11.28;100.00;101793.91;10233786;28;20091;-69
2021/10/26 20:09:48;;;;;;;25.60;15.85;;;;;;;11.32;100.00;101794.13;10241370;28;20040;-69
2021/10/26 20:14:48;;;;;;;27.55;17.42;;;;;;;11.33;100.00;101787.56;10251293;28;20478;-69
2021/10/26 20:19:51;;;;;;;27.35;15.80;;;;;;;11.32;99.95;101789.47;10269217;28;20574;-70
2021/10/26 20:24:51;;;;;;;20.85;14.63;;;;;;;11.32;99.32;101783.16;10265877;28;20491;-69
2021/10/26 20:29:53;;;;;;;22.83;14.90;;;;;;;11.35;98.96;101788.06;10261954;28;20063;-70
2021/10/26 20:34:50;;;;;;;20.48;14.27;;;;;;;11.40;98.51;101812.63;10264770;28;20128;-69
2021/10/26 20:39:47;;;;;;;21.58;15.10;;;;;;;11.42;97.85;101810.41;10257075;28;20111;-69
2021/10/26 20:44:44;;;;;;;22.75;13.50;;;;;;;11.46;97.03;101795.00;10263014;28;20037;-69
2021/10/26 20:49:42;;;;;;;23.33;14.30;;;;;;;11.49;96.95;101799.91;10263387;28;20072;-69
2021/10/26 20:54:40;;;;;;;27.10;14.65;;;;;;;11.54;95.81;101802.56;10265897;28;20145;-69
2021/10/26 20:59:37;;;;;;;20.67;13.73;;;;;;;11.59;95.29;101799.72;10264045;28;20538;-69
2021/10/26 21:04:33;;;;;;;19.17;12.82;;;;;;;11.67;94.81;101791.94;10270262;28;20135;-70
2021/10/26 21:09:30;;;;;;;22.90;12.10;;;;;;;11.68;94.54;101796.31;10267777;28;20044;-69
2021/10/26 21:14:26;;;;;;;20.25;12.77;;;;;;;11.65;94.90;101807.84;10270215;28;20057;-70
2021/10/26 21:19:23;;;;;;;20.60;12.77;;;;;;;11.64;95.42;101804.31;10266619;28;20069;-71
2021/10/26 21:24:19;;;;;;;21.08;12.68;;;;;;;11.63;95.64;101799.13;10259035;28;20072;-70
2021/10/26 21:29:17;;;;;;;22.65;12.77;;;;;;;11.64;95.46;101798.84;10255111;28;20033;-71
2021/10/26 21:34:19;;;;;;;27.55;13.70;;;;;;;11.64;95.29;101807.06;10255838;28;20049;-71
2021/10/26 21:39:16;;;;;;;20.35;13.00;;;;;;;11.67;95.16;101805.63;10254729;28;20036;-70
2021/10/26 21:44:13;;;;;;;18.05;12.20;;;;;;;11.68;95.25;101801.81;10255605;28;20044;-70
2021/10/26 21:49:10;;;;;;;20.58;12.40;;;;;;;11.64;95.77;101795.28;10265290;28;20093;-70
2021/10/26 21:54:08;;;;;;;22.95;14.40;;;;;;;11.58;97.02;101787.16;10251869;28;20409;-71
2021/10/26 21:59:05;;;;;;;22.08;14.13;;;;;;;11.51;98.19;101792.22;10256525;28;20127;-70
2021/10/26 22:04:02;;;;;;;24.95;15.68;;;;;;;11.44;99.33;101797.25;10257094;28;20069;-70
2021/10/26 22:09:02;;;;;;;26.48;16.17;;;;;;;11.45;99.89;101798.88;10257299;28;20086;-69
2021/10/26 22:13:59;;;;;;;24.25;15.00;;;;;;;11.39;100.00;101794.56;10260480;28;20061;-69
2021/10/26 22:18:56;;;;;;;28.00;16.90;;;;;;;11.36;100.00;101778.75;10255725;28;20063;-70
2021/10/26 22:23:52;;;;;;;29.45;17.05;;;;;;;11.31;100.00;101776.09;10262038;28;20061;-73
2021/10/26 22:28:49;;;;;;;27.25;16.15;;;;;;;11.30;100.00;101774.44;10257997;28;20107;-71
2021/10/26 22:33:46;;;;;;;30.83;16.45;;;;;;;11.33;100.00;101779.34;10255933;28;20045;-69
2021/10/26 22:38:43;;;;;;;26.45;15.25;;;;;;;11.36;99.78;101773.25;10257395;28;20576;-69
2021/10/26 22:43:40;;;;;;;23.00;14.80;;;;;;;11.41;99.43;101770.44;10250467;28;20118;-70
2021/10/26 22:48:37;;;;;;;31.33;15.02;;;;;;;11.47;98.87;101769.25;10256695;28;20040;-70
2021/10/26 22:53:35;;;;;;;22.75;14.35;;;;;;;11.49;98.46;101767.03;10251780;28;20132;-70
2021/10/26 22:58:32;;;;;;;24.30;15.73;;;;;;;11.47;98.13;101769.25;10252198;28;20073;-70